ICE115 BIKF-BGGH
Flight info
| Callsign | ICE115 |
|---|---|
| Flight time | N/A |
| Altitude | 38000 |
| Route | SORIR2D SORIR DCT SOPEN DCT SABAG DCT NAPIB DCT INBAN DCT GETDA |
| Aircraft | B38M/M-SDE1FGHILORVWXY/HB1 |
Departure
| Time | N/A |
|---|---|
| Airport | Keflavik International Airport (BIKF) |
Arrival
| Time | 2026-04-30 17:48 |
|---|---|
| Airport | Nuuk International Airport (BGGH) |
| Time | Latitude | Longitude | Altitude | Speed | Heading |
|---|---|---|---|---|---|
| 2026-04-30 15:17 | 63.99281 | -22.62192 | 141 ft | 0 kts | 316° |
| 2026-04-30 17:39 | 64.18536 | -51.91137 | 3011 ft | 237 kts | 216° |
| 2026-04-30 17:41 | 64.07198 | -52.06549 | 3673 ft | 235 kts | 188° |
| 2026-04-30 17:42 | 64.04864 | -52.04885 | 3511 ft | 195 kts | 132° |
| 2026-04-30 17:42 | 64.03969 | -51.96807 | 3283 ft | 173 kts | 86° |
| 2026-04-30 17:43 | 64.04150 | -51.91552 | 3164 ft | 162 kts | 86° |
| 2026-04-30 17:44 | 64.05210 | -51.84527 | 2988 ft | 150 kts | 47° |
| 2026-04-30 17:44 | 64.07307 | -51.79353 | 2737 ft | 145 kts | 58° |
| 2026-04-30 17:46 | 64.11499 | -51.73063 | 1843 ft | 140 kts | 13° |
| 2026-04-30 17:47 | 64.15166 | -51.70826 | 962 ft | 129 kts | 16° |
| 2026-04-30 17:48 | 64.18535 | -51.68340 | 286 ft | 111 kts | 18° |
| 2026-04-30 17:48 | 64.19495 | -51.67645 | 282 ft | 23 kts | 18° |
| 2026-04-30 17:49 | 64.19984 | -51.67361 | 282 ft | 1 kts | 15° |
| 2026-04-30 17:50 | 64.19962 | -51.67262 | 282 ft | 11 kts | 196° |
| 2026-04-30 17:51 | 64.19303 | -51.67781 | 280 ft | 32 kts | 198° |
| 2026-04-30 17:52 | 64.19115 | -51.67874 | 283 ft | 3 kts | 140° |
| 2026-04-30 17:53 | 64.18757 | -51.67802 | 282 ft | 25 kts | 198° |
| 2026-04-30 17:54 | 64.18416 | -51.68049 | 282 ft | 1 kts | 196° |
| 2026-04-30 17:55 | 64.18381 | -51.67990 | 282 ft | 2 kts | 95° |
| 2026-04-30 17:56 | 64.18381 | -51.67916 | 282 ft | 0 kts | 139° |